sensor_id;sensor_type;location;lat;lon;timestamp;P1;durP1;ratioP1;P2;durP2;ratioP2
79243;SDS011;68672;42.676;23.356;2023-05-19T00:01:20;5.95;;;4.60;;
79243;SDS011;68672;42.676;23.356;2023-05-19T00:03:49;6.95;;;3.60;;
79243;SDS011;68672;42.676;23.356;2023-05-19T00:06:23;4.88;;;3.30;;
79243;SDS011;68672;42.676;23.356;2023-05-19T00:11:23;6.55;;;3.83;;
79243;SDS011;68672;42.676;23.356;2023-05-19T00:13:50;6.57;;;3.90;;
79243;SDS011;68672;42.676;23.356;2023-05-19T00:16:17;6.35;;;3.95;;
79243;SDS011;68672;42.676;23.356;2023-05-19T00:18:43;4.72;;;3.75;;
79243;SDS011;68672;42.676;23.356;2023-05-19T00:21:08;5.65;;;4.32;;
79243;SDS011;68672;42.676;23.356;2023-05-19T00:23:34;5.15;;;4.13;;
79243;SDS011;68672;42.676;23.356;2023-05-19T00:25:59;6.68;;;4.35;;
79243;SDS011;68672;42.676;23.356;2023-05-19T00:28:25;5.35;;;4.05;;
79243;SDS011;68672;42.676;23.356;2023-05-19T00:30:50;7.78;;;4.60;;
79243;SDS011;68672;42.676;23.356;2023-05-19T00:33:15;5.55;;;3.55;;
79243;SDS011;68672;42.676;23.356;2023-05-19T00:35:41;6.97;;;3.80;;
79243;SDS011;68672;42.676;23.356;2023-05-19T00:38:06;5.38;;;3.95;;
79243;SDS011;68672;42.676;23.356;2023-05-19T00:40:33;5.07;;;3.92;;
79243;SDS011;68672;42.676;23.356;2023-05-19T00:43:00;7.20;;;4.00;;
79243;SDS011;68672;42.676;23.356;2023-05-19T00:45:26;5.82;;;4.30;;
79243;SDS011;68672;42.676;23.356;2023-05-19T00:47:55;5.53;;;4.10;;
79243;SDS011;68672;42.676;23.356;2023-05-19T00:50:20;5.25;;;4.10;;
79243;SDS011;68672;42.676;23.356;2023-05-19T00:52:48;5.28;;;4.20;;
79243;SDS011;68672;42.676;23.356;2023-05-19T00:55:16;5.13;;;3.83;;
79243;SDS011;68672;42.676;23.356;2023-05-19T00:57:42;6.03;;;4.13;;
79243;SDS011;68672;42.676;23.356;2023-05-19T01:00:08;7.40;;;4.38;;
79243;SDS011;68672;42.676;23.356;2023-05-19T01:02:35;6.28;;;4.85;;
79243;SDS011;68672;42.676;23.356;2023-05-19T01:05:04;5.88;;;4.47;;
79243;SDS011;68672;42.676;23.356;2023-05-19T01:07:31;6.47;;;4.95;;
79243;SDS011;68672;42.676;23.356;2023-05-19T01:09:56;7.45;;;4.63;;
79243;SDS011;68672;42.676;23.356;2023-05-19T01:12:22;7.22;;;4.38;;
79243;SDS011;68672;42.676;23.356;2023-05-19T01:14:50;7.30;;;5.25;;
79243;SDS011;68672;42.676;23.356;2023-05-19T01:17:27;5.13;;;4.47;;
79243;SDS011;68672;42.676;23.356;2023-05-19T01:28:53;8.30;;;5.90;;
79243;SDS011;68672;42.676;23.356;2023-05-19T01:31:39;7.00;;;5.32;;
79243;SDS011;68672;42.676;23.356;2023-05-19T01:34:06;8.43;;;5.53;;
79243;SDS011;68672;42.676;23.356;2023-05-19T01:36:34;9.75;;;6.03;;
79243;SDS011;68672;42.676;23.356;2023-05-19T01:39:01;9.00;;;5.68;;
79243;SDS011;68672;42.676;23.356;2023-05-19T01:41:30;7.78;;;5.75;;
79243;SDS011;68672;42.676;23.356;2023-05-19T01:43:57;8.52;;;5.82;;
79243;SDS011;68672;42.676;23.356;2023-05-19T01:46:29;8.55;;;5.05;;
79243;SDS011;68672;42.676;23.356;2023-05-19T01:48:55;8.15;;;5.43;;
79243;SDS011;68672;42.676;23.356;2023-05-19T01:51:21;8.15;;;5.82;;
79243;SDS011;68672;42.676;23.356;2023-05-19T01:53:46;8.23;;;5.35;;
79243;SDS011;68672;42.676;23.356;2023-05-19T01:56:15;8.55;;;5.60;;
79243;SDS011;68672;42.676;23.356;2023-05-19T01:58:46;6.70;;;5.20;;
79243;SDS011;68672;42.676;23.356;2023-05-19T02:04:07;8.93;;;5.35;;
79243;SDS011;68672;42.676;23.356;2023-05-19T02:06:51;9.85;;;6.35;;
79243;SDS011;68672;42.676;23.356;2023-05-19T02:17:37;9.70;;;6.47;;
79243;SDS011;68672;42.676;23.356;2023-05-19T02:20:11;7.72;;;5.68;;
79243;SDS011;68672;42.676;23.356;2023-05-19T02:22:37;9.57;;;6.05;;
79243;SDS011;68672;42.676;23.356;2023-05-19T02:25:03;7.82;;;5.78;;
79243;SDS011;68672;42.676;23.356;2023-05-19T02:27:28;9.75;;;6.07;;
79243;SDS011;68672;42.676;23.356;2023-05-19T02:29:57;8.20;;;5.30;;
79243;SDS011;68672;42.676;23.356;2023-05-19T02:32:23;7.60;;;5.07;;
79243;SDS011;68672;42.676;23.356;2023-05-19T02:34:49;9.63;;;6.40;;
79243;SDS011;68672;42.676;23.356;2023-05-19T02:37:14;6.35;;;4.88;;
79243;SDS011;68672;42.676;23.356;2023-05-19T02:39:43;10.85;;;7.00;;
79243;SDS011;68672;42.676;23.356;2023-05-19T02:42:09;9.20;;;6.05;;
79243;SDS011;68672;42.676;23.356;2023-05-19T02:44:38;7.47;;;5.40;;
79243;SDS011;68672;42.676;23.356;2023-05-19T02:47:04;8.13;;;5.75;;
79243;SDS011;68672;42.676;23.356;2023-05-19T02:49:29;8.65;;;5.53;;
79243;SDS011;68672;42.676;23.356;2023-05-19T02:51:59;8.25;;;5.35;;
79243;SDS011;68672;42.676;23.356;2023-05-19T02:54:25;8.60;;;5.60;;
79243;SDS011;68672;42.676;23.356;2023-05-19T02:56:50;9.73;;;6.13;;
79243;SDS011;68672;42.676;23.356;2023-05-19T02:59:15;8.38;;;5.63;;
79243;SDS011;68672;42.676;23.356;2023-05-19T03:01:41;8.68;;;4.82;;
79243;SDS011;68672;42.676;23.356;2023-05-19T03:04:06;8.32;;;6.47;;
79243;SDS011;68672;42.676;23.356;2023-05-19T03:06:32;13.38;;;6.22;;
79243;SDS011;68672;42.676;23.356;2023-05-19T03:08:57;7.05;;;4.85;;
79243;SDS011;68672;42.676;23.356;2023-05-19T03:11:23;9.25;;;5.38;;
79243;SDS011;68672;42.676;23.356;2023-05-19T03:13:48;9.00;;;6.65;;
79243;SDS011;68672;42.676;23.356;2023-05-19T03:16:14;8.27;;;5.60;;
79243;SDS011;68672;42.676;23.356;2023-05-19T03:18:40;9.13;;;5.00;;
79243;SDS011;68672;42.676;23.356;2023-05-19T03:21:05;12.23;;;6.40;;
79243;SDS011;68672;42.676;23.356;2023-05-19T03:23:31;8.77;;;6.03;;
79243;SDS011;68672;42.676;23.356;2023-05-19T03:25:59;10.02;;;6.72;;
79243;SDS011;68672;42.676;23.356;2023-05-19T03:28:25;9.80;;;5.90;;
79243;SDS011;68672;42.676;23.356;2023-05-19T03:30:51;10.48;;;6.60;;
79243;SDS011;68672;42.676;23.356;2023-05-19T03:33:17;8.63;;;6.65;;
79243;SDS011;68672;42.676;23.356;2023-05-19T03:35:42;7.10;;;5.43;;
79243;SDS011;68672;42.676;23.356;2023-05-19T03:38:08;10.15;;;7.10;;
79243;SDS011;68672;42.676;23.356;2023-05-19T03:40:34;9.63;;;6.55;;
79243;SDS011;68672;42.676;23.356;2023-05-19T03:42:59;9.75;;;6.13;;
79243;SDS011;68672;42.676;23.356;2023-05-19T03:45:25;8.45;;;6.07;;
79243;SDS011;68672;42.676;23.356;2023-05-19T03:47:50;7.75;;;5.80;;
79243;SDS011;68672;42.676;23.356;2023-05-19T03:50:19;11.07;;;6.55;;
79243;SDS011;68672;42.676;23.356;2023-05-19T03:52:45;10.93;;;6.22;;
79243;SDS011;68672;42.676;23.356;2023-05-19T03:55:12;9.30;;;6.03;;
79243;SDS011;68672;42.676;23.356;2023-05-19T03:57:38;7.07;;;4.97;;
79243;SDS011;68672;42.676;23.356;2023-05-19T04:00:05;9.13;;;6.10;;
79243;SDS011;68672;42.676;23.356;2023-05-19T04:02:35;10.13;;;6.13;;
79243;SDS011;68672;42.676;23.356;2023-05-19T04:05:03;9.15;;;5.78;;
79243;SDS011;68672;42.676;23.356;2023-05-19T04:07:29;7.05;;;5.20;;
79243;SDS011;68672;42.676;23.356;2023-05-19T04:09:55;8.68;;;5.57;;
79243;SDS011;68672;42.676;23.356;2023-05-19T04:12:24;7.57;;;5.70;;
79243;SDS011;68672;42.676;23.356;2023-05-19T04:14:54;9.13;;;6.05;;
79243;SDS011;68672;42.676;23.356;2023-05-19T04:17:20;10.27;;;6.32;;
79243;SDS011;68672;42.676;23.356;2023-05-19T04:19:47;9.38;;;6.22;;
79243;SDS011;68672;42.676;23.356;2023-05-19T04:22:12;9.45;;;6.20;;
79243;SDS011;68672;42.676;23.356;2023-05-19T04:24:44;10.13;;;6.18;;
79243;SDS011;68672;42.676;23.356;2023-05-19T04:27:10;11.18;;;6.22;;
79243;SDS011;68672;42.676;23.356;2023-05-19T04:29:36;8.82;;;4.82;;
79243;SDS011;68672;42.676;23.356;2023-05-19T04:32:03;8.98;;;6.28;;
79243;SDS011;68672;42.676;23.356;2023-05-19T04:34:32;8.93;;;6.28;;
79243;SDS011;68672;42.676;23.356;2023-05-19T04:36:58;7.78;;;6.05;;
79243;SDS011;68672;42.676;23.356;2023-05-19T04:39:24;9.30;;;5.65;;
79243;SDS011;68672;42.676;23.356;2023-05-19T04:41:50;9.13;;;6.35;;
79243;SDS011;68672;42.676;23.356;2023-05-19T04:44:15;12.90;;;6.38;;
79243;SDS011;68672;42.676;23.356;2023-05-19T04:46:42;8.65;;;5.80;;
79243;SDS011;68672;42.676;23.356;2023-05-19T04:49:09;9.55;;;6.78;;
79243;SDS011;68672;42.676;23.356;2023-05-19T04:51:36;9.05;;;6.18;;
79243;SDS011;68672;42.676;23.356;2023-05-19T04:56:31;8.63;;;6.22;;
79243;SDS011;68672;42.676;23.356;2023-05-19T04:58:57;9.40;;;6.43;;
79243;SDS011;68672;42.676;23.356;2023-05-19T05:01:23;10.02;;;6.25;;
79243;SDS011;68672;42.676;23.356;2023-05-19T05:03:50;8.82;;;6.70;;
79243;SDS011;68672;42.676;23.356;2023-05-19T05:06:19;10.95;;;6.97;;
79243;SDS011;68672;42.676;23.356;2023-05-19T05:08:46;12.07;;;6.32;;
79243;SDS011;68672;42.676;23.356;2023-05-19T05:11:12;10.10;;;6.07;;
79243;SDS011;68672;42.676;23.356;2023-05-19T05:13:37;9.70;;;5.97;;
79243;SDS011;68672;42.676;23.356;2023-05-19T05:16:03;9.10;;;6.57;;
79243;SDS011;68672;42.676;23.356;2023-05-19T05:18:32;8.85;;;5.50;;
79243;SDS011;68672;42.676;23.356;2023-05-19T05:20:58;9.60;;;6.82;;
79243;SDS011;68672;42.676;23.356;2023-05-19T05:23:27;11.43;;;6.03;;
79243;SDS011;68672;42.676;23.356;2023-05-19T05:25:52;9.50;;;6.40;;
79243;SDS011;68672;42.676;23.356;2023-05-19T05:28:18;8.13;;;6.20;;
79243;SDS011;68672;42.676;23.356;2023-05-19T05:30:43;7.57;;;5.47;;
79243;SDS011;68672;42.676;23.356;2023-05-19T05:33:10;8.55;;;6.03;;
79243;SDS011;68672;42.676;23.356;2023-05-19T05:35:35;13.68;;;6.85;;
79243;SDS011;68672;42.676;23.356;2023-05-19T05:38:01;9.88;;;6.47;;
79243;SDS011;68672;42.676;23.356;2023-05-19T05:40:27;12.50;;;6.32;;
79243;SDS011;68672;42.676;23.356;2023-05-19T05:42:52;9.38;;;6.85;;
79243;SDS011;68672;42.676;23.356;2023-05-19T05:45:21;8.95;;;5.88;;
79243;SDS011;68672;42.676;23.356;2023-05-19T05:47:46;9.75;;;5.97;;
79243;SDS011;68672;42.676;23.356;2023-05-19T05:50:12;10.10;;;5.75;;
79243;SDS011;68672;42.676;23.356;2023-05-19T05:52:38;10.45;;;6.70;;
79243;SDS011;68672;42.676;23.356;2023-05-19T05:55:05;9.27;;;6.53;;
79243;SDS011;68672;42.676;23.356;2023-05-19T05:57:31;8.75;;;6.32;;
79243;SDS011;68672;42.676;23.356;2023-05-19T05:59:59;9.85;;;5.82;;
79243;SDS011;68672;42.676;23.356;2023-05-19T06:02:25;9.35;;;6.07;;
79243;SDS011;68672;42.676;23.356;2023-05-19T06:04:53;7.85;;;5.88;;
79243;SDS011;68672;42.676;23.356;2023-05-19T06:07:19;8.55;;;5.50;;
79243;SDS011;68672;42.676;23.356;2023-05-19T06:09:45;7.70;;;4.68;;
79243;SDS011;68672;42.676;23.356;2023-05-19T06:12:10;9.90;;;5.93;;
79243;SDS011;68672;42.676;23.356;2023-05-19T06:14:36;11.77;;;6.20;;
79243;SDS011;68672;42.676;23.356;2023-05-19T06:17:01;6.28;;;5.50;;
79243;SDS011;68672;42.676;23.356;2023-05-19T06:19:27;8.88;;;5.68;;
79243;SDS011;68672;42.676;23.356;2023-05-19T06:21:55;9.23;;;5.38;;
79243;SDS011;68672;42.676;23.356;2023-05-19T06:24:20;7.65;;;5.68;;
79243;SDS011;68672;42.676;23.356;2023-05-19T06:26:46;7.18;;;5.70;;
79243;SDS011;68672;42.676;23.356;2023-05-19T06:29:14;8.95;;;4.88;;
79243;SDS011;68672;42.676;23.356;2023-05-19T06:31:41;5.97;;;5.07;;
79243;SDS011;68672;42.676;23.356;2023-05-19T06:34:06;9.60;;;5.38;;
79243;SDS011;68672;42.676;23.356;2023-05-19T06:36:34;7.22;;;5.10;;
79243;SDS011;68672;42.676;23.356;2023-05-19T06:39:08;7.28;;;5.90;;
79243;SDS011;68672;42.676;23.356;2023-05-19T06:41:34;7.68;;;5.35;;
79243;SDS011;68672;42.676;23.356;2023-05-19T06:43:59;6.13;;;4.95;;
79243;SDS011;68672;42.676;23.356;2023-05-19T06:46:24;8.77;;;4.93;;
79243;SDS011;68672;42.676;23.356;2023-05-19T06:48:50;6.03;;;4.40;;
79243;SDS011;68672;42.676;23.356;2023-05-19T06:51:18;7.45;;;4.95;;
79243;SDS011;68672;42.676;23.356;2023-05-19T06:53:46;7.72;;;4.68;;
79243;SDS011;68672;42.676;23.356;2023-05-19T06:56:12;5.72;;;4.78;;
79243;SDS011;68672;42.676;23.356;2023-05-19T06:58:39;7.80;;;4.63;;
79243;SDS011;68672;42.676;23.356;2023-05-19T07:01:04;9.25;;;5.22;;
79243;SDS011;68672;42.676;23.356;2023-05-19T07:03:30;5.22;;;4.03;;
79243;SDS011;68672;42.676;23.356;2023-05-19T07:05:58;6.28;;;4.88;;
79243;SDS011;68672;42.676;23.356;2023-05-19T07:08:24;7.28;;;4.88;;
79243;SDS011;68672;42.676;23.356;2023-05-19T07:10:51;7.28;;;4.88;;
79243;SDS011;68672;42.676;23.356;2023-05-19T07:13:17;6.15;;;4.68;;
79243;SDS011;68672;42.676;23.356;2023-05-19T07:15:42;7.57;;;4.95;;
79243;SDS011;68672;42.676;23.356;2023-05-19T07:18:11;7.53;;;4.85;;
79243;SDS011;68672;42.676;23.356;2023-05-19T07:20:36;8.07;;;5.38;;
79243;SDS011;68672;42.676;23.356;2023-05-19T07:23:01;5.28;;;4.32;;
79243;SDS011;68672;42.676;23.356;2023-05-19T07:25:27;5.93;;;4.63;;
79243;SDS011;68672;42.676;23.356;2023-05-19T07:27:57;7.43;;;5.20;;
79243;SDS011;68672;42.676;23.356;2023-05-19T07:30:23;7.13;;;4.93;;
79243;SDS011;68672;42.676;23.356;2023-05-19T07:32:51;8.02;;;5.43;;
79243;SDS011;68672;42.676;23.356;2023-05-19T07:35:16;5.55;;;5.05;;
79243;SDS011;68672;42.676;23.356;2023-05-19T07:37:42;7.68;;;5.13;;
79243;SDS011;68672;42.676;23.356;2023-05-19T07:40:07;5.75;;;4.38;;
79243;SDS011;68672;42.676;23.356;2023-05-19T07:42:33;6.60;;;4.85;;
79243;SDS011;68672;42.676;23.356;2023-05-19T07:44:59;7.00;;;4.72;;
79243;SDS011;68672;42.676;23.356;2023-05-19T07:47:30;5.75;;;4.90;;
79243;SDS011;68672;42.676;23.356;2023-05-19T07:49:56;9.35;;;5.97;;
79243;SDS011;68672;42.676;23.356;2023-05-19T07:52:24;6.90;;;5.85;;
79243;SDS011;68672;42.676;23.356;2023-05-19T07:54:49;7.95;;;5.30;;
79243;SDS011;68672;42.676;23.356;2023-05-19T07:57:15;8.25;;;4.88;;
79243;SDS011;68672;42.676;23.356;2023-05-19T07:59:40;8.95;;;5.68;;
79243;SDS011;68672;42.676;23.356;2023-05-19T08:02:06;6.75;;;5.47;;
79243;SDS011;68672;42.676;23.356;2023-05-19T08:04:31;8.90;;;5.85;;
79243;SDS011;68672;42.676;23.356;2023-05-19T08:06:57;12.38;;;6.00;;
79243;SDS011;68672;42.676;23.356;2023-05-19T08:09:23;8.25;;;5.90;;
79243;SDS011;68672;42.676;23.356;2023-05-19T08:11:48;8.38;;;5.30;;
79243;SDS011;68672;42.676;23.356;2023-05-19T08:14:14;8.00;;;5.95;;
79243;SDS011;68672;42.676;23.356;2023-05-19T08:16:40;9.60;;;6.50;;
79243;SDS011;68672;42.676;23.356;2023-05-19T08:19:10;10.05;;;6.13;;
79243;SDS011;68672;42.676;23.356;2023-05-19T08:21:35;7.80;;;5.60;;
79243;SDS011;68672;42.676;23.356;2023-05-19T08:24:01;9.30;;;6.28;;
79243;SDS011;68672;42.676;23.356;2023-05-19T08:26:26;7.57;;;5.28;;
79243;SDS011;68672;42.676;23.356;2023-05-19T08:28:52;9.43;;;5.63;;
79243;SDS011;68672;42.676;23.356;2023-05-19T08:31:18;9.25;;;6.22;;
79243;SDS011;68672;42.676;23.356;2023-05-19T08:33:49;9.88;;;5.55;;
79243;SDS011;68672;42.676;23.356;2023-05-19T08:36:17;8.88;;;6.30;;
79243;SDS011;68672;42.676;23.356;2023-05-19T08:38:43;6.82;;;5.90;;
79243;SDS011;68672;42.676;23.356;2023-05-19T08:41:09;7.53;;;5.38;;
79243;SDS011;68672;42.676;23.356;2023-05-19T08:43:34;10.05;;;5.60;;
79243;SDS011;68672;42.676;23.356;2023-05-19T08:46:00;12.73;;;6.75;;
79243;SDS011;68672;42.676;23.356;2023-05-19T08:48:28;10.30;;;6.40;;
79243;SDS011;68672;42.676;23.356;2023-05-19T08:53:47;10.40;;;6.22;;
79243;SDS011;68672;42.676;23.356;2023-05-19T08:56:15;8.90;;;6.78;;
79243;SDS011;68672;42.676;23.356;2023-05-19T08:58:45;14.45;;;6.22;;
79243;SDS011;68672;42.676;23.356;2023-05-19T09:01:14;9.82;;;6.60;;
79243;SDS011;68672;42.676;23.356;2023-05-19T09:03:40;8.45;;;6.43;;
79243;SDS011;68672;42.676;23.356;2023-05-19T09:06:07;10.88;;;5.90;;
79243;SDS011;68672;42.676;23.356;2023-05-19T09:08:39;10.20;;;6.20;;
79243;SDS011;68672;42.676;23.356;2023-05-19T09:11:06;7.25;;;5.05;;
79243;SDS011;68672;42.676;23.356;2023-05-19T09:13:33;7.53;;;5.80;;
79243;SDS011;68672;42.676;23.356;2023-05-19T09:15:59;9.05;;;5.70;;
79243;SDS011;68672;42.676;23.356;2023-05-19T09:18:24;9.73;;;6.57;;
79243;SDS011;68672;42.676;23.356;2023-05-19T09:20:56;8.32;;;6.60;;
79243;SDS011;68672;42.676;23.356;2023-05-19T09:23:27;8.80;;;6.40;;
79243;SDS011;68672;42.676;23.356;2023-05-19T09:25:54;8.60;;;6.22;;
79243;SDS011;68672;42.676;23.356;2023-05-19T09:28:30;9.35;;;6.22;;
79243;SDS011;68672;42.676;23.356;2023-05-19T09:31:06;8.95;;;6.88;;
79243;SDS011;68672;42.676;23.356;2023-05-19T09:33:41;10.23;;;7.30;;
79243;SDS011;68672;42.676;23.356;2023-05-19T09:36:07;9.20;;;6.32;;
79243;SDS011;68672;42.676;23.356;2023-05-19T09:38:33;8.02;;;5.65;;
79243;SDS011;68672;42.676;23.356;2023-05-19T09:41:00;8.15;;;6.47;;
79243;SDS011;68672;42.676;23.356;2023-05-19T09:43:26;10.30;;;6.63;;
79243;SDS011;68672;42.676;23.356;2023-05-19T09:45:59;8.38;;;6.85;;
79243;SDS011;68672;42.676;23.356;2023-05-19T09:48:27;9.55;;;6.15;;
79243;SDS011;68672;42.676;23.356;2023-05-19T09:50:54;8.75;;;6.82;;
79243;SDS011;68672;42.676;23.356;2023-05-19T09:53:21;9.27;;;6.72;;
79243;SDS011;68672;42.676;23.356;2023-05-19T09:55:48;9.70;;;6.55;;
79243;SDS011;68672;42.676;23.356;2023-05-19T09:58:15;12.80;;;8.48;;
79243;SDS011;68672;42.676;23.356;2023-05-19T10:00:44;8.35;;;6.90;;
79243;SDS011;68672;42.676;23.356;2023-05-19T10:03:10;7.82;;;7.00;;
79243;SDS011;68672;42.676;23.356;2023-05-19T10:05:36;8.52;;;5.53;;
79243;SDS011;68672;42.676;23.356;2023-05-19T10:08:03;9.07;;;6.68;;
79243;SDS011;68672;42.676;23.356;2023-05-19T10:10:34;10.93;;;8.57;;
79243;SDS011;68672;42.676;23.356;2023-05-19T10:13:01;8.88;;;6.55;;
79243;SDS011;68672;42.676;23.356;2023-05-19T10:15:29;10.50;;;6.47;;
79243;SDS011;68672;42.676;23.356;2023-05-19T10:17:56;10.45;;;7.35;;
79243;SDS011;68672;42.676;23.356;2023-05-19T10:20:21;12.02;;;7.22;;
79243;SDS011;68672;42.676;23.356;2023-05-19T10:22:47;8.63;;;6.53;;
79243;SDS011;68672;42.676;23.356;2023-05-19T10:25:13;11.38;;;6.15;;
79243;SDS011;68672;42.676;23.356;2023-05-19T10:27:41;9.02;;;6.53;;
79243;SDS011;68672;42.676;23.356;2023-05-19T10:30:13;9.50;;;6.80;;
79243;SDS011;68672;42.676;23.356;2023-05-19T10:32:43;11.98;;;6.75;;
79243;SDS011;68672;42.676;23.356;2023-05-19T10:38:26;9.82;;;6.50;;
79243;SDS011;68672;42.676;23.356;2023-05-19T10:41:08;8.52;;;6.15;;
79243;SDS011;68672;42.676;23.356;2023-05-19T10:43:53;10.30;;;6.80;;
79243;SDS011;68672;42.676;23.356;2023-05-19T10:46:28;7.10;;;5.75;;
79243;SDS011;68672;42.676;23.356;2023-05-19T10:48:54;7.50;;;5.78;;
79243;SDS011;68672;42.676;23.356;2023-05-19T10:51:19;7.00;;;5.80;;
79243;SDS011;68672;42.676;23.356;2023-05-19T10:53:45;8.90;;;6.13;;
79243;SDS011;68672;42.676;23.356;2023-05-19T10:56:32;7.78;;;6.40;;
79243;SDS011;68672;42.676;23.356;2023-05-19T10:59:05;7.03;;;5.90;;
79243;SDS011;68672;42.676;23.356;2023-05-19T11:01:32;11.63;;;6.65;;
79243;SDS011;68672;42.676;23.356;2023-05-19T11:04:09;8.65;;;6.22;;
79243;SDS011;68672;42.676;23.356;2023-05-19T11:06:36;7.97;;;6.22;;
79243;SDS011;68672;42.676;23.356;2023-05-19T11:09:10;7.82;;;5.88;;
79243;SDS011;68672;42.676;23.356;2023-05-19T11:11:45;10.43;;;6.25;;
79243;SDS011;68672;42.676;23.356;2023-05-19T11:14:18;10.27;;;6.68;;
79243;SDS011;68672;42.676;23.356;2023-05-19T11:16:46;10.65;;;6.53;;
79243;SDS011;68672;42.676;23.356;2023-05-19T11:19:25;10.00;;;6.50;;
79243;SDS011;68672;42.676;23.356;2023-05-19T11:21:52;9.57;;;6.63;;
79243;SDS011;68672;42.676;23.356;2023-05-19T11:27:19;10.40;;;6.70;;
79243;SDS011;68672;42.676;23.356;2023-05-19T11:32:28;8.15;;;5.47;;
79243;SDS011;68672;42.676;23.356;2023-05-19T11:34:54;8.82;;;6.05;;
79243;SDS011;68672;42.676;23.356;2023-05-19T11:37:21;8.57;;;6.50;;
79243;SDS011;68672;42.676;23.356;2023-05-19T11:39:46;8.25;;;6.72;;
79243;SDS011;68672;42.676;23.356;2023-05-19T11:42:12;8.20;;;6.22;;
79243;SDS011;68672;42.676;23.356;2023-05-19T11:44:38;10.30;;;6.53;;
79243;SDS011;68672;42.676;23.356;2023-05-19T11:47:09;9.48;;;6.47;;
79243;SDS011;68672;42.676;23.356;2023-05-19T11:49:35;9.40;;;6.13;;
79243;SDS011;68672;42.676;23.356;2023-05-19T11:52:00;10.38;;;6.53;;
79243;SDS011;68672;42.676;23.356;2023-05-19T11:54:33;8.35;;;6.70;;
79243;SDS011;68672;42.676;23.356;2023-05-19T11:57:03;7.18;;;6.25;;
79243;SDS011;68672;42.676;23.356;2023-05-19T11:59:29;7.88;;;6.72;;
79243;SDS011;68672;42.676;23.356;2023-05-19T12:01:56;9.45;;;6.88;;
79243;SDS011;68672;42.676;23.356;2023-05-19T12:04:22;11.20;;;7.78;;
79243;SDS011;68672;42.676;23.356;2023-05-19T12:06:47;9.15;;;5.78;;
79243;SDS011;68672;42.676;23.356;2023-05-19T12:09:13;7.63;;;5.63;;
79243;SDS011;68672;42.676;23.356;2023-05-19T12:11:39;7.88;;;5.70;;
79243;SDS011;68672;42.676;23.356;2023-05-19T12:14:08;7.80;;;4.90;;
79243;SDS011;68672;42.676;23.356;2023-05-19T12:16:34;6.68;;;4.80;;
79243;SDS011;68672;42.676;23.356;2023-05-19T12:19:06;6.57;;;4.43;;
79243;SDS011;68672;42.676;23.356;2023-05-19T12:21:32;5.97;;;4.50;;
79243;SDS011;68672;42.676;23.356;2023-05-19T12:23:58;6.38;;;5.10;;
79243;SDS011;68672;42.676;23.356;2023-05-19T12:26:24;7.38;;;4.78;;
79243;SDS011;68672;42.676;23.356;2023-05-19T12:28:49;6.80;;;5.22;;
79243;SDS011;68672;42.676;23.356;2023-05-19T12:31:16;6.03;;;4.18;;
79243;SDS011;68672;42.676;23.356;2023-05-19T12:33:42;7.60;;;4.65;;
79243;SDS011;68672;42.676;23.356;2023-05-19T12:36:09;7.43;;;5.20;;
79243;SDS011;68672;42.676;23.356;2023-05-19T12:38:37;7.75;;;4.68;;
79243;SDS011;68672;42.676;23.356;2023-05-19T12:41:04;6.68;;;5.07;;
79243;SDS011;68672;42.676;23.356;2023-05-19T12:43:31;5.65;;;3.92;;
79243;SDS011;68672;42.676;23.356;2023-05-19T12:45:57;5.82;;;4.43;;
79243;SDS011;68672;42.676;23.356;2023-05-19T12:48:22;5.78;;;4.47;;
79243;SDS011;68672;42.676;23.356;2023-05-19T12:50:50;6.95;;;5.20;;
79243;SDS011;68672;42.676;23.356;2023-05-19T12:53:16;9.27;;;5.20;;
79243;SDS011;68672;42.676;23.356;2023-05-19T12:55:41;10.90;;;4.60;;
79243;SDS011;68672;42.676;23.356;2023-05-19T12:58:08;5.28;;;4.43;;
79243;SDS011;68672;42.676;23.356;2023-05-19T13:00:40;7.85;;;4.90;;
79243;SDS011;68672;42.676;23.356;2023-05-19T13:03:07;6.45;;;5.10;;
79243;SDS011;68672;42.676;23.356;2023-05-19T13:05:40;7.72;;;4.70;;
79243;SDS011;68672;42.676;23.356;2023-05-19T13:08:14;6.75;;;4.38;;
79243;SDS011;68672;42.676;23.356;2023-05-19T13:10:41;5.90;;;4.15;;
79243;SDS011;68672;42.676;23.356;2023-05-19T13:13:10;8.80;;;4.22;;
79243;SDS011;68672;42.676;23.356;2023-05-19T13:15:40;5.55;;;4.03;;
79243;SDS011;68672;42.676;23.356;2023-05-19T13:18:08;8.10;;;4.47;;
79243;SDS011;68672;42.676;23.356;2023-05-19T13:20:36;5.32;;;3.88;;
79243;SDS011;68672;42.676;23.356;2023-05-19T13:23:02;5.90;;;4.10;;
79243;SDS011;68672;42.676;23.356;2023-05-19T13:25:29;7.53;;;4.35;;
79243;SDS011;68672;42.676;23.356;2023-05-19T13:27:56;5.82;;;4.53;;
79243;SDS011;68672;42.676;23.356;2023-05-19T13:30:25;6.78;;;4.30;;
79243;SDS011;68672;42.676;23.356;2023-05-19T13:32:53;6.85;;;4.53;;
79243;SDS011;68672;42.676;23.356;2023-05-19T13:35:18;7.53;;;4.15;;
79243;SDS011;68672;42.676;23.356;2023-05-19T13:37:44;5.10;;;4.07;;
79243;SDS011;68672;42.676;23.356;2023-05-19T13:40:15;5.68;;;4.75;;
79243;SDS011;68672;42.676;23.356;2023-05-19T13:42:41;6.38;;;4.32;;
79243;SDS011;68672;42.676;23.356;2023-05-19T13:45:10;6.60;;;4.15;;
79243;SDS011;68672;42.676;23.356;2023-05-19T13:47:36;6.22;;;5.22;;
79243;SDS011;68672;42.676;23.356;2023-05-19T13:50:03;5.68;;;4.55;;
79243;SDS011;68672;42.676;23.356;2023-05-19T13:52:29;7.45;;;4.82;;
79243;SDS011;68672;42.676;23.356;2023-05-19T13:54:54;6.78;;;4.85;;
79243;SDS011;68672;42.676;23.356;2023-05-19T13:57:20;8.45;;;4.72;;
79243;SDS011;68672;42.676;23.356;2023-05-19T13:59:47;9.13;;;5.60;;
79243;SDS011;68672;42.676;23.356;2023-05-19T14:02:15;7.60;;;5.15;;
79243;SDS011;68672;42.676;23.356;2023-05-19T14:04:41;5.68;;;4.70;;
79243;SDS011;68672;42.676;23.356;2023-05-19T14:07:06;6.68;;;5.32;;
79243;SDS011;68672;42.676;23.356;2023-05-19T14:09:33;8.93;;;5.80;;
79243;SDS011;68672;42.676;23.356;2023-05-19T14:11:59;6.03;;;5.40;;
79243;SDS011;68672;42.676;23.356;2023-05-19T14:14:24;7.57;;;5.50;;
79243;SDS011;68672;42.676;23.356;2023-05-19T14:16:49;7.65;;;4.88;;
79243;SDS011;68672;42.676;23.356;2023-05-19T14:19:15;6.15;;;5.25;;
79243;SDS011;68672;42.676;23.356;2023-05-19T14:21:44;6.40;;;5.03;;
79243;SDS011;68672;42.676;23.356;2023-05-19T14:24:09;10.48;;;7.20;;
79243;SDS011;68672;42.676;23.356;2023-05-19T14:26:40;7.00;;;4.50;;
79243;SDS011;68672;42.676;23.356;2023-05-19T14:29:05;8.90;;;5.78;;
79243;SDS011;68672;42.676;23.356;2023-05-19T14:31:31;8.07;;;5.28;;
79243;SDS011;68672;42.676;23.356;2023-05-19T14:33:57;6.68;;;5.45;;
79243;SDS011;68672;42.676;23.356;2023-05-19T14:36:22;7.72;;;4.97;;
79243;SDS011;68672;42.676;23.356;2023-05-19T14:38:47;7.85;;;4.88;;
79243;SDS011;68672;42.676;23.356;2023-05-19T14:41:15;7.43;;;5.13;;
79243;SDS011;68672;42.676;23.356;2023-05-19T14:43:41;6.15;;;4.28;;
79243;SDS011;68672;42.676;23.356;2023-05-19T14:46:07;8.93;;;5.32;;
79243;SDS011;68672;42.676;23.356;2023-05-19T14:48:32;7.47;;;5.40;;
79243;SDS011;68672;42.676;23.356;2023-05-19T14:50:58;6.38;;;4.90;;
79243;SDS011;68672;42.676;23.356;2023-05-19T14:53:23;6.28;;;4.63;;
79243;SDS011;68672;42.676;23.356;2023-05-19T14:55:48;8.02;;;5.70;;
79243;SDS011;68672;42.676;23.356;2023-05-19T14:58:14;6.82;;;4.80;;
79243;SDS011;68672;42.676;23.356;2023-05-19T15:00:46;10.60;;;5.13;;
79243;SDS011;68672;42.676;23.356;2023-05-19T15:03:14;7.88;;;5.20;;
79243;SDS011;68672;42.676;23.356;2023-05-19T15:05:40;8.13;;;6.68;;
79243;SDS011;68672;42.676;23.356;2023-05-19T15:08:05;6.70;;;4.97;;
79243;SDS011;68672;42.676;23.356;2023-05-19T15:10:33;8.10;;;5.28;;